sensor_id;sensor_type;location;lat;lon;timestamp;P1;durP1;ratioP1;P2;durP2;ratioP2
51764;SDS011;37835;53.256;6.456;2023-06-26T00:00:48;9.18;;;8.20;;
51764;SDS011;37835;53.256;6.456;2023-06-26T00:03:14;8.80;;;7.95;;
51764;SDS011;37835;53.256;6.456;2023-06-26T00:05:40;9.98;;;8.57;;
51764;SDS011;37835;53.256;6.456;2023-06-26T00:08:07;8.60;;;7.80;;
51764;SDS011;37835;53.256;6.456;2023-06-26T00:10:32;10.25;;;8.35;;
51764;SDS011;37835;53.256;6.456;2023-06-26T00:12:59;9.40;;;8.57;;
51764;SDS011;37835;53.256;6.456;2023-06-26T00:15:25;10.95;;;8.80;;
51764;SDS011;37835;53.256;6.456;2023-06-26T00:17:50;11.60;;;8.93;;
51764;SDS011;37835;53.256;6.456;2023-06-26T00:20:16;8.70;;;7.78;;
51764;SDS011;37835;53.256;6.456;2023-06-26T00:22:43;9.38;;;7.35;;
51764;SDS011;37835;53.256;6.456;2023-06-26T00:25:10;9.30;;;8.30;;
51764;SDS011;37835;53.256;6.456;2023-06-26T00:27:35;11.02;;;8.00;;
51764;SDS011;37835;53.256;6.456;2023-06-26T00:30:01;9.15;;;8.25;;
51764;SDS011;37835;53.256;6.456;2023-06-26T00:32:27;8.82;;;7.97;;
51764;SDS011;37835;53.256;6.456;2023-06-26T00:34:52;9.52;;;8.50;;
51764;SDS011;37835;53.256;6.456;2023-06-26T00:37:18;8.70;;;7.85;;
51764;SDS011;37835;53.256;6.456;2023-06-26T00:39:43;11.80;;;8.23;;
51764;SDS011;37835;53.256;6.456;2023-06-26T00:42:09;10.75;;;8.80;;
51764;SDS011;37835;53.256;6.456;2023-06-26T00:44:35;11.57;;;7.78;;
51764;SDS011;37835;53.256;6.456;2023-06-26T00:47:00;13.52;;;8.73;;
51764;SDS011;37835;53.256;6.456;2023-06-26T00:49:26;9.70;;;8.27;;
51764;SDS011;37835;53.256;6.456;2023-06-26T00:51:52;9.05;;;8.10;;
51764;SDS011;37835;53.256;6.456;2023-06-26T00:54:19;8.80;;;7.88;;
51764;SDS011;37835;53.256;6.456;2023-06-26T00:56:47;11.57;;;8.63;;
51764;SDS011;37835;53.256;6.456;2023-06-26T00:59:13;9.35;;;8.25;;
51764;SDS011;37835;53.256;6.456;2023-06-26T01:01:39;9.07;;;8.18;;
51764;SDS011;37835;53.256;6.456;2023-06-26T01:04:05;9.95;;;7.88;;
51764;SDS011;37835;53.256;6.456;2023-06-26T01:06:30;11.60;;;9.20;;
51764;SDS011;37835;53.256;6.456;2023-06-26T01:09:01;9.25;;;8.35;;
51764;SDS011;37835;53.256;6.456;2023-06-26T01:11:27;11.38;;;9.00;;
51764;SDS011;37835;53.256;6.456;2023-06-26T01:13:53;10.45;;;8.40;;
51764;SDS011;37835;53.256;6.456;2023-06-26T01:16:21;11.32;;;9.32;;
51764;SDS011;37835;53.256;6.456;2023-06-26T01:18:49;12.32;;;9.27;;
51764;SDS011;37835;53.256;6.456;2023-06-26T01:21:15;10.13;;;8.25;;
51764;SDS011;37835;53.256;6.456;2023-06-26T01:26:20;9.20;;;8.40;;
51764;SDS011;37835;53.256;6.456;2023-06-26T01:28:47;10.13;;;7.82;;
51764;SDS011;37835;53.256;6.456;2023-06-26T01:31:15;10.60;;;8.57;;
51764;SDS011;37835;53.256;6.456;2023-06-26T01:33:41;13.80;;;8.98;;
51764;SDS011;37835;53.256;6.456;2023-06-26T01:36:08;10.82;;;9.02;;
51764;SDS011;37835;53.256;6.456;2023-06-26T01:38:33;9.55;;;8.35;;
51764;SDS011;37835;53.256;6.456;2023-06-26T01:41:02;8.52;;;7.72;;
51764;SDS011;37835;53.256;6.456;2023-06-26T01:46:36;10.23;;;9.23;;
51764;SDS011;37835;53.256;6.456;2023-06-26T01:54:30;11.30;;;8.45;;
51764;SDS011;37835;53.256;6.456;2023-06-26T01:57:02;9.38;;;8.48;;
51764;SDS011;37835;53.256;6.456;2023-06-26T01:59:31;9.77;;;8.88;;
51764;SDS011;37835;53.256;6.456;2023-06-26T02:02:00;9.50;;;8.50;;
51764;SDS011;37835;53.256;6.456;2023-06-26T02:04:26;9.82;;;8.82;;
51764;SDS011;37835;53.256;6.456;2023-06-26T02:06:52;9.60;;;8.63;;
51764;SDS011;37835;53.256;6.456;2023-06-26T02:09:17;10.75;;;9.02;;
51764;SDS011;37835;53.256;6.456;2023-06-26T02:11:43;11.90;;;9.05;;
51764;SDS011;37835;53.256;6.456;2023-06-26T02:14:08;9.90;;;9.00;;
51764;SDS011;37835;53.256;6.456;2023-06-26T02:16:35;13.57;;;9.88;;
51764;SDS011;37835;53.256;6.456;2023-06-26T02:19:00;14.25;;;9.60;;
51764;SDS011;37835;53.256;6.456;2023-06-26T02:21:26;10.85;;;9.27;;
51764;SDS011;37835;53.256;6.456;2023-06-26T02:23:51;12.63;;;10.43;;
51764;SDS011;37835;53.256;6.456;2023-06-26T02:26:17;10.63;;;9.60;;
51764;SDS011;37835;53.256;6.456;2023-06-26T02:28:43;10.93;;;9.80;;
51764;SDS011;37835;53.256;6.456;2023-06-26T02:31:08;12.75;;;9.73;;
51764;SDS011;37835;53.256;6.456;2023-06-26T02:33:34;12.43;;;9.45;;
51764;SDS011;37835;53.256;6.456;2023-06-26T02:36:00;10.73;;;9.65;;
51764;SDS011;37835;53.256;6.456;2023-06-26T02:38:26;10.40;;;9.40;;
51764;SDS011;37835;53.256;6.456;2023-06-26T02:40:51;11.52;;;10.43;;
51764;SDS011;37835;53.256;6.456;2023-06-26T02:43:17;11.15;;;10.05;;
51764;SDS011;37835;53.256;6.456;2023-06-26T02:45:42;10.20;;;9.20;;
51764;SDS011;37835;53.256;6.456;2023-06-26T02:48:08;14.05;;;10.75;;
51764;SDS011;37835;53.256;6.456;2023-06-26T02:50:33;11.82;;;10.35;;
51764;SDS011;37835;53.256;6.456;2023-06-26T02:52:59;12.90;;;11.57;;
51764;SDS011;37835;53.256;6.456;2023-06-26T02:55:25;12.40;;;10.18;;
51764;SDS011;37835;53.256;6.456;2023-06-26T02:57:51;11.57;;;10.38;;
51764;SDS011;37835;53.256;6.456;2023-06-26T03:00:16;13.15;;;11.20;;
51764;SDS011;37835;53.256;6.456;2023-06-26T03:02:42;12.77;;;10.95;;
51764;SDS011;37835;53.256;6.456;2023-06-26T03:05:07;14.02;;;9.90;;
51764;SDS011;37835;53.256;6.456;2023-06-26T03:07:33;12.52;;;10.13;;
51764;SDS011;37835;53.256;6.456;2023-06-26T03:09:59;13.18;;;11.65;;
51764;SDS011;37835;53.256;6.456;2023-06-26T03:12:25;13.43;;;12.23;;
51764;SDS011;37835;53.256;6.456;2023-06-26T03:14:51;16.20;;;12.38;;
51764;SDS011;37835;53.256;6.456;2023-06-26T03:17:16;14.05;;;12.00;;
51764;SDS011;37835;53.256;6.456;2023-06-26T03:19:42;13.93;;;12.43;;
51764;SDS011;37835;53.256;6.456;2023-06-26T03:22:08;14.05;;;12.50;;
51764;SDS011;37835;53.256;6.456;2023-06-26T03:24:33;14.23;;;10.73;;
51764;SDS011;37835;53.256;6.456;2023-06-26T03:26:59;15.32;;;13.15;;
51764;SDS011;37835;53.256;6.456;2023-06-26T03:29:25;14.15;;;12.73;;
51764;SDS011;37835;53.256;6.456;2023-06-26T03:31:50;14.32;;;12.48;;
51764;SDS011;37835;53.256;6.456;2023-06-26T03:34:16;17.70;;;12.18;;
51764;SDS011;37835;53.256;6.456;2023-06-26T03:36:41;23.80;;;12.10;;
51764;SDS011;37835;53.256;6.456;2023-06-26T03:39:07;15.30;;;13.70;;
51764;SDS011;37835;53.256;6.456;2023-06-26T03:41:33;14.02;;;12.52;;
51764;SDS011;37835;53.256;6.456;2023-06-26T03:43:59;14.68;;;12.45;;
51764;SDS011;37835;53.256;6.456;2023-06-26T03:46:25;13.70;;;12.30;;
51764;SDS011;37835;53.256;6.456;2023-06-26T03:48:51;14.50;;;11.82;;
51764;SDS011;37835;53.256;6.456;2023-06-26T03:51:17;15.38;;;12.32;;
51764;SDS011;37835;53.256;6.456;2023-06-26T03:53:42;16.98;;;12.77;;
51764;SDS011;37835;53.256;6.456;2023-06-26T03:56:08;14.68;;;11.55;;
51764;SDS011;37835;53.256;6.456;2023-06-26T03:58:34;14.07;;;12.50;;
51764;SDS011;37835;53.256;6.456;2023-06-26T04:00:59;11.90;;;10.68;;
51764;SDS011;37835;53.256;6.456;2023-06-26T04:03:25;14.77;;;12.43;;
51764;SDS011;37835;53.256;6.456;2023-06-26T04:05:51;13.13;;;11.73;;
51764;SDS011;37835;53.256;6.456;2023-06-26T04:08:16;13.98;;;10.93;;
51764;SDS011;37835;53.256;6.456;2023-06-26T04:10:42;14.75;;;11.38;;
51764;SDS011;37835;53.256;6.456;2023-06-26T04:13:10;13.15;;;11.40;;
51764;SDS011;37835;53.256;6.456;2023-06-26T04:15:36;13.48;;;11.93;;
51764;SDS011;37835;53.256;6.456;2023-06-26T04:18:01;14.07;;;11.15;;
51764;SDS011;37835;53.256;6.456;2023-06-26T04:20:28;12.98;;;11.43;;
51764;SDS011;37835;53.256;6.456;2023-06-26T04:22:53;12.23;;;10.68;;
51764;SDS011;37835;53.256;6.456;2023-06-26T04:25:19;11.88;;;10.68;;
51764;SDS011;37835;53.256;6.456;2023-06-26T04:27:44;11.73;;;10.52;;
51764;SDS011;37835;53.256;6.456;2023-06-26T04:30:10;15.90;;;10.18;;
51764;SDS011;37835;53.256;6.456;2023-06-26T04:32:37;15.10;;;9.85;;
51764;SDS011;37835;53.256;6.456;2023-06-26T04:35:03;13.60;;;9.20;;
51764;SDS011;37835;53.256;6.456;2023-06-26T04:37:28;12.30;;;9.13;;
51764;SDS011;37835;53.256;6.456;2023-06-26T04:39:54;9.98;;;8.98;;
51764;SDS011;37835;53.256;6.456;2023-06-26T04:42:19;13.30;;;8.77;;
51764;SDS011;37835;53.256;6.456;2023-06-26T04:44:46;18.13;;;9.63;;
51764;SDS011;37835;53.256;6.456;2023-06-26T04:47:12;13.90;;;8.90;;
51764;SDS011;37835;53.256;6.456;2023-06-26T04:49:40;24.63;;;9.90;;
51764;SDS011;37835;53.256;6.456;2023-06-26T04:52:10;14.67;;;9.37;;
51764;SDS011;37835;53.256;6.456;2023-06-26T04:54:38;15.25;;;9.80;;
51764;SDS011;37835;53.256;6.456;2023-06-26T04:57:04;21.70;;;9.82;;
51764;SDS011;37835;53.256;6.456;2023-06-26T04:59:30;17.00;;;9.70;;
51764;SDS011;37835;53.256;6.456;2023-06-26T05:01:56;18.25;;;10.73;;
51764;SDS011;37835;53.256;6.456;2023-06-26T05:04:22;19.90;;;10.05;;
51764;SDS011;37835;53.256;6.456;2023-06-26T05:06:48;21.42;;;11.40;;
51764;SDS011;37835;53.256;6.456;2023-06-26T05:09:13;18.58;;;10.98;;
51764;SDS011;37835;53.256;6.456;2023-06-26T05:11:39;26.50;;;10.40;;
51764;SDS011;37835;53.256;6.456;2023-06-26T05:14:05;24.50;;;12.23;;
51764;SDS011;37835;53.256;6.456;2023-06-26T05:16:32;22.48;;;11.68;;
51764;SDS011;37835;53.256;6.456;2023-06-26T05:18:59;21.95;;;11.77;;
51764;SDS011;37835;53.256;6.456;2023-06-26T05:21:24;20.80;;;10.50;;
51764;SDS011;37835;53.256;6.456;2023-06-26T05:23:50;16.35;;;9.55;;
51764;SDS011;37835;53.256;6.456;2023-06-26T05:26:19;18.10;;;8.75;;
51764;SDS011;37835;53.256;6.456;2023-06-26T05:28:45;17.30;;;7.78;;
51764;SDS011;37835;53.256;6.456;2023-06-26T05:31:13;18.33;;;7.18;;
51764;SDS011;37835;53.256;6.456;2023-06-26T05:33:40;16.52;;;7.00;;
51764;SDS011;37835;53.256;6.456;2023-06-26T05:36:09;17.08;;;7.32;;
51764;SDS011;37835;53.256;6.456;2023-06-26T05:38:36;22.58;;;7.05;;
51764;SDS011;37835;53.256;6.456;2023-06-26T05:41:02;16.73;;;5.85;;
51764;SDS011;37835;53.256;6.456;2023-06-26T05:43:28;19.75;;;6.53;;
51764;SDS011;37835;53.256;6.456;2023-06-26T05:45:54;19.17;;;6.55;;
51764;SDS011;37835;53.256;6.456;2023-06-26T05:48:19;21.70;;;6.30;;
51764;SDS011;37835;53.256;6.456;2023-06-26T05:50:45;17.88;;;5.35;;
51764;SDS011;37835;53.256;6.456;2023-06-26T05:53:11;19.25;;;5.82;;
51764;SDS011;37835;53.256;6.456;2023-06-26T05:55:37;18.42;;;5.38;;
51764;SDS011;37835;53.256;6.456;2023-06-26T05:58:03;15.60;;;5.32;;
51764;SDS011;37835;53.256;6.456;2023-06-26T06:00:28;20.17;;;5.45;;
51764;SDS011;37835;53.256;6.456;2023-06-26T06:02:54;23.45;;;5.57;;
51764;SDS011;37835;53.256;6.456;2023-06-26T06:05:20;21.17;;;5.60;;
51764;SDS011;37835;53.256;6.456;2023-06-26T06:07:47;20.75;;;5.50;;
51764;SDS011;37835;53.256;6.456;2023-06-26T06:10:13;21.40;;;5.28;;
51764;SDS011;37835;53.256;6.456;2023-06-26T06:12:38;18.58;;;4.57;;
51764;SDS011;37835;53.256;6.456;2023-06-26T06:15:05;15.27;;;4.13;;
51764;SDS011;37835;53.256;6.456;2023-06-26T06:17:31;19.15;;;4.60;;
51764;SDS011;37835;53.256;6.456;2023-06-26T06:19:57;23.90;;;5.53;;
51764;SDS011;37835;53.256;6.456;2023-06-26T06:22:22;19.65;;;4.57;;
51764;SDS011;37835;53.256;6.456;2023-06-26T06:24:48;17.35;;;5.13;;
51764;SDS011;37835;53.256;6.456;2023-06-26T06:27:15;17.70;;;3.83;;
51764;SDS011;37835;53.256;6.456;2023-06-26T06:29:40;16.00;;;4.28;;
51764;SDS011;37835;53.256;6.456;2023-06-26T06:32:06;16.10;;;4.00;;
51764;SDS011;37835;53.256;6.456;2023-06-26T06:34:32;19.20;;;3.90;;
51764;SDS011;37835;53.256;6.456;2023-06-26T06:36:57;16.67;;;3.45;;
51764;SDS011;37835;53.256;6.456;2023-06-26T06:39:23;17.05;;;3.95;;
51764;SDS011;37835;53.256;6.456;2023-06-26T06:41:48;13.40;;;3.30;;
51764;SDS011;37835;53.256;6.456;2023-06-26T06:44:14;10.95;;;3.75;;
51764;SDS011;37835;53.256;6.456;2023-06-26T06:46:40;12.65;;;2.95;;
51764;SDS011;37835;53.256;6.456;2023-06-26T06:49:05;13.38;;;3.30;;
51764;SDS011;37835;53.256;6.456;2023-06-26T06:51:31;14.88;;;2.95;;
51764;SDS011;37835;53.256;6.456;2023-06-26T06:53:56;10.30;;;2.65;;
51764;SDS011;37835;53.256;6.456;2023-06-26T06:56:22;14.95;;;3.10;;
51764;SDS011;37835;53.256;6.456;2023-06-26T06:58:47;11.35;;;2.83;;
51764;SDS011;37835;53.256;6.456;2023-06-26T07:01:13;6.85;;;2.75;;
51764;SDS011;37835;53.256;6.456;2023-06-26T07:03:39;7.22;;;2.22;;
51764;SDS011;37835;53.256;6.456;2023-06-26T07:06:04;8.35;;;2.42;;
51764;SDS011;37835;53.256;6.456;2023-06-26T07:08:30;10.55;;;2.70;;
51764;SDS011;37835;53.256;6.456;2023-06-26T07:10:56;9.43;;;2.40;;
51764;SDS011;37835;53.256;6.456;2023-06-26T07:13:22;11.80;;;2.58;;
51764;SDS011;37835;53.256;6.456;2023-06-26T07:15:47;9.60;;;2.40;;
51764;SDS011;37835;53.256;6.456;2023-06-26T07:18:13;10.32;;;2.67;;
51764;SDS011;37835;53.256;6.456;2023-06-26T07:20:39;9.05;;;2.05;;
51764;SDS011;37835;53.256;6.456;2023-06-26T07:23:05;10.77;;;2.65;;
51764;SDS011;37835;53.256;6.456;2023-06-26T07:25:30;11.77;;;2.72;;
51764;SDS011;37835;53.256;6.456;2023-06-26T07:27:56;8.13;;;1.73;;
51764;SDS011;37835;53.256;6.456;2023-06-26T07:30:21;12.30;;;2.75;;
51764;SDS011;37835;53.256;6.456;2023-06-26T07:32:47;8.65;;;2.03;;
51764;SDS011;37835;53.256;6.456;2023-06-26T07:35:13;5.93;;;1.83;;
51764;SDS011;37835;53.256;6.456;2023-06-26T07:37:39;10.40;;;2.15;;
51764;SDS011;37835;53.256;6.456;2023-06-26T07:40:06;10.30;;;2.00;;
51764;SDS011;37835;53.256;6.456;2023-06-26T07:42:32;8.50;;;1.60;;
51764;SDS011;37835;53.256;6.456;2023-06-26T07:44:57;5.68;;;1.60;;
51764;SDS011;37835;53.256;6.456;2023-06-26T07:47:23;4.55;;;1.38;;
51764;SDS011;37835;53.256;6.456;2023-06-26T07:49:48;6.05;;;1.60;;
51764;SDS011;37835;53.256;6.456;2023-06-26T07:52:14;8.07;;;1.83;;
51764;SDS011;37835;53.256;6.456;2023-06-26T07:54:40;8.57;;;1.60;;
51764;SDS011;37835;53.256;6.456;2023-06-26T07:57:06;7.68;;;1.70;;
51764;SDS011;37835;53.256;6.456;2023-06-26T07:59:32;7.00;;;1.42;;
51764;SDS011;37835;53.256;6.456;2023-06-26T08:01:58;4.60;;;1.70;;
51764;SDS011;37835;53.256;6.456;2023-06-26T08:04:25;5.07;;;1.45;;
51764;SDS011;37835;53.256;6.456;2023-06-26T08:06:54;3.67;;;1.40;;
51764;SDS011;37835;53.256;6.456;2023-06-26T08:09:21;8.50;;;1.77;;
51764;SDS011;37835;53.256;6.456;2023-06-26T08:11:48;6.07;;;2.03;;
51764;SDS011;37835;53.256;6.456;2023-06-26T08:14:14;8.52;;;1.65;;
51764;SDS011;37835;53.256;6.456;2023-06-26T08:16:40;5.72;;;1.33;;
51764;SDS011;37835;53.256;6.456;2023-06-26T08:19:07;7.13;;;1.80;;
51764;SDS011;37835;53.256;6.456;2023-06-26T08:21:33;5.55;;;1.67;;
51764;SDS011;37835;53.256;6.456;2023-06-26T08:23:59;7.53;;;2.17;;
51764;SDS011;37835;53.256;6.456;2023-06-26T08:26:25;9.85;;;1.70;;
51764;SDS011;37835;53.256;6.456;2023-06-26T08:28:50;8.93;;;1.85;;
51764;SDS011;37835;53.256;6.456;2023-06-26T08:31:16;7.35;;;1.73;;
51764;SDS011;37835;53.256;6.456;2023-06-26T08:33:42;6.88;;;1.92;;
51764;SDS011;37835;53.256;6.456;2023-06-26T08:36:08;7.80;;;2.60;;
51764;SDS011;37835;53.256;6.456;2023-06-26T08:38:34;5.80;;;1.92;;
51764;SDS011;37835;53.256;6.456;2023-06-26T08:40:59;5.72;;;1.67;;
51764;SDS011;37835;53.256;6.456;2023-06-26T08:43:25;1.90;;;1.33;;
51764;SDS011;37835;53.256;6.456;2023-06-26T08:45:52;5.55;;;2.05;;
51764;SDS011;37835;53.256;6.456;2023-06-26T08:48:18;8.40;;;1.95;;
51764;SDS011;37835;53.256;6.456;2023-06-26T08:50:45;5.93;;;2.30;;
51764;SDS011;37835;53.256;6.456;2023-06-26T08:55:54;5.32;;;1.70;;
51764;SDS011;37835;53.256;6.456;2023-06-26T08:58:21;8.30;;;1.85;;
51764;SDS011;37835;53.256;6.456;2023-06-26T09:00:47;4.10;;;1.70;;
51764;SDS011;37835;53.256;6.456;2023-06-26T09:03:14;3.13;;;1.83;;
51764;SDS011;37835;53.256;6.456;2023-06-26T09:05:40;5.30;;;1.85;;
51764;SDS011;37835;53.256;6.456;2023-06-26T09:08:06;4.35;;;1.80;;
51764;SDS011;37835;53.256;6.456;2023-06-26T09:10:33;3.75;;;1.60;;
51764;SDS011;37835;53.256;6.456;2023-06-26T09:12:58;2.42;;;1.45;;
51764;SDS011;37835;53.256;6.456;2023-06-26T09:15:26;4.65;;;1.83;;
51764;SDS011;37835;53.256;6.456;2023-06-26T09:17:56;7.97;;;2.20;;
51764;SDS011;37835;53.256;6.456;2023-06-26T09:20:22;7.10;;;1.70;;
51764;SDS011;37835;53.256;6.456;2023-06-26T09:22:48;5.43;;;1.88;;
51764;SDS011;37835;53.256;6.456;2023-06-26T09:25:13;3.17;;;1.58;;
51764;SDS011;37835;53.256;6.456;2023-06-26T09:27:39;4.63;;;1.73;;
51764;SDS011;37835;53.256;6.456;2023-06-26T09:30:05;7.43;;;2.20;;
51764;SDS011;37835;53.256;6.456;2023-06-26T09:32:34;6.70;;;1.88;;
51764;SDS011;37835;53.256;6.456;2023-06-26T09:35:03;4.05;;;1.83;;
51764;SDS011;37835;53.256;6.456;2023-06-26T09:37:29;9.25;;;2.30;;
51764;SDS011;37835;53.256;6.456;2023-06-26T09:39:55;6.07;;;2.10;;
51764;SDS011;37835;53.256;6.456;2023-06-26T09:42:21;5.43;;;2.10;;
51764;SDS011;37835;53.256;6.456;2023-06-26T09:44:47;4.18;;;2.20;;
51764;SDS011;37835;53.256;6.456;2023-06-26T09:47:16;8.60;;;2.90;;
51764;SDS011;37835;53.256;6.456;2023-06-26T09:49:44;7.47;;;2.85;;
51764;SDS011;37835;53.256;6.456;2023-06-26T09:52:10;4.72;;;2.42;;
51764;SDS011;37835;53.256;6.456;2023-06-26T09:54:45;6.60;;;2.60;;
51764;SDS011;37835;53.256;6.456;2023-06-26T09:57:11;7.15;;;2.67;;
51764;SDS011;37835;53.256;6.456;2023-06-26T09:59:39;6.00;;;2.35;;
51764;SDS011;37835;53.256;6.456;2023-06-26T10:02:05;6.40;;;2.20;;
51764;SDS011;37835;53.256;6.456;2023-06-26T10:04:34;6.63;;;2.63;;
51764;SDS011;37835;53.256;6.456;2023-06-26T10:07:04;6.35;;;2.45;;
51764;SDS011;37835;53.256;6.456;2023-06-26T10:09:31;5.70;;;2.97;;
51764;SDS011;37835;53.256;6.456;2023-06-26T10:12:11;7.35;;;2.72;;
51764;SDS011;37835;53.256;6.456;2023-06-26T10:14:42;6.35;;;2.88;;
51764;SDS011;37835;53.256;6.456;2023-06-26T10:17:10;3.75;;;2.53;;
51764;SDS011;37835;53.256;6.456;2023-06-26T10:19:39;10.52;;;2.90;;
51764;SDS011;37835;53.256;6.456;2023-06-26T10:22:06;5.93;;;2.72;;
51764;SDS011;37835;53.256;6.456;2023-06-26T10:24:35;4.07;;;2.22;;
51764;SDS011;37835;53.256;6.456;2023-06-26T10:27:08;7.00;;;2.25;;
51764;SDS011;37835;53.256;6.456;2023-06-26T10:32:31;6.65;;;2.40;;
51764;SDS011;37835;53.256;6.456;2023-06-26T10:34:58;5.93;;;2.05;;
51764;SDS011;37835;53.256;6.456;2023-06-26T10:40:09;5.30;;;2.38;;
51764;SDS011;37835;53.256;6.456;2023-06-26T10:42:36;4.55;;;1.98;;
51764;SDS011;37835;53.256;6.456;2023-06-26T10:45:15;6.72;;;2.25;;
51764;SDS011;37835;53.256;6.456;2023-06-26T10:47:48;8.95;;;3.25;;
51764;SDS011;37835;53.256;6.456;2023-06-26T10:56:03;4.13;;;2.50;;
51764;SDS011;37835;53.256;6.456;2023-06-26T11:03:37;6.00;;;2.03;;
51764;SDS011;37835;53.256;6.456;2023-06-26T11:06:19;7.65;;;1.90;;
51764;SDS011;37835;53.256;6.456;2023-06-26T11:08:47;4.72;;;1.60;;
51764;SDS011;37835;53.256;6.456;2023-06-26T11:11:14;4.63;;;1.67;;
51764;SDS011;37835;53.256;6.456;2023-06-26T11:13:40;6.45;;;1.67;;
51764;SDS011;37835;53.256;6.456;2023-06-26T11:16:06;5.05;;;1.65;;
51764;SDS011;37835;53.256;6.456;2023-06-26T11:18:32;8.27;;;1.70;;
51764;SDS011;37835;53.256;6.456;2023-06-26T11:21:10;5.63;;;1.90;;
51764;SDS011;37835;53.256;6.456;2023-06-26T11:23:39;6.90;;;1.50;;
51764;SDS011;37835;53.256;6.456;2023-06-26T11:26:15;6.05;;;1.50;;
51764;SDS011;37835;53.256;6.456;2023-06-26T11:28:50;5.20;;;1.75;;
51764;SDS011;37835;53.256;6.456;2023-06-26T11:33:56;6.88;;;1.80;;
51764;SDS011;37835;53.256;6.456;2023-06-26T11:36:23;3.83;;;1.60;;
51764;SDS011;37835;53.256;6.456;2023-06-26T11:38:53;9.27;;;1.70;;
51764;SDS011;37835;53.256;6.456;2023-06-26T11:41:25;8.35;;;1.70;;
51764;SDS011;37835;53.256;6.456;2023-06-26T11:43:53;7.32;;;1.55;;
51764;SDS011;37835;53.256;6.456;2023-06-26T11:46:19;6.88;;;1.88;;
51764;SDS011;37835;53.256;6.456;2023-06-26T11:48:45;7.05;;;1.60;;
51764;SDS011;37835;53.256;6.456;2023-06-26T11:51:15;9.80;;;1.98;;
51764;SDS011;37835;53.256;6.456;2023-06-26T11:53:41;5.97;;;1.35;;
51764;SDS011;37835;53.256;6.456;2023-06-26T11:56:11;8.55;;;1.85;;
51764;SDS011;37835;53.256;6.456;2023-06-26T12:01:39;4.87;;;1.63;;
51764;SDS011;37835;53.256;6.456;2023-06-26T12:04:08;12.80;;;2.50;;
51764;SDS011;37835;53.256;6.456;2023-06-26T12:06:35;6.03;;;1.60;;
51764;SDS011;37835;53.256;6.456;2023-06-26T12:09:05;6.85;;;1.60;;
51764;SDS011;37835;53.256;6.456;2023-06-26T12:11:32;5.03;;;1.40;;
51764;SDS011;37835;53.256;6.456;2023-06-26T12:13:59;7.32;;;1.63;;
51764;SDS011;37835;53.256;6.456;2023-06-26T12:16:29;5.43;;;1.42;;
51764;SDS011;37835;53.256;6.456;2023-06-26T12:19:02;10.85;;;1.65;;
51764;SDS011;37835;53.256;6.456;2023-06-26T12:24:10;7.07;;;1.30;;
51764;SDS011;37835;53.256;6.456;2023-06-26T12:26:41;7.80;;;1.55;;
51764;SDS011;37835;53.256;6.456;2023-06-26T12:29:09;8.95;;;1.38;;
51764;SDS011;37835;53.256;6.456;2023-06-26T12:31:39;6.85;;;1.70;;
51764;SDS011;37835;53.256;6.456;2023-06-26T12:34:18;6.53;;;1.52;;
51764;SDS011;37835;53.256;6.456;2023-06-26T12:36:46;3.90;;;1.10;;
51764;SDS011;37835;53.256;6.456;2023-06-26T12:39:15;8.52;;;1.95;;
51764;SDS011;37835;53.256;6.456;2023-06-26T12:41:45;5.80;;;1.40;;
51764;SDS011;37835;53.256;6.456;2023-06-26T12:44:27;7.90;;;1.60;;
51764;SDS011;37835;53.256;6.456;2023-06-26T12:46:57;5.68;;;1.35;;
51764;SDS011;37835;53.256;6.456;2023-06-26T12:49:31;5.47;;;1.53;;
51764;SDS011;37835;53.256;6.456;2023-06-26T12:52:08;6.20;;;1.52;;
51764;SDS011;37835;53.256;6.456;2023-06-26T12:54:45;6.45;;;1.60;;
51764;SDS011;37835;53.256;6.456;2023-06-26T12:57:12;7.43;;;1.52;;
51764;SDS011;37835;53.256;6.456;2023-06-26T12:59:41;4.93;;;1.42;;
51764;SDS011;37835;53.256;6.456;2023-06-26T13:02:07;6.75;;;1.60;;
51764;SDS011;37835;53.256;6.456;2023-06-26T13:04:33;5.90;;;1.20;;
51764;SDS011;37835;53.256;6.456;2023-06-26T13:06:59;10.25;;;1.60;;
51764;SDS011;37835;53.256;6.456;2023-06-26T13:09:25;6.78;;;1.65;;
51764;SDS011;37835;53.256;6.456;2023-06-26T13:11:51;10.50;;;1.58;;
51764;SDS011;37835;53.256;6.456;2023-06-26T13:14:18;6.40;;;1.60;;
51764;SDS011;37835;53.256;6.456;2023-06-26T13:16:43;3.05;;;1.20;;
51764;SDS011;37835;53.256;6.456;2023-06-26T13:19:09;5.35;;;1.40;;
51764;SDS011;37835;53.256;6.456;2023-06-26T13:21:35;5.40;;;1.50;;
51764;SDS011;37835;53.256;6.456;2023-06-26T13:24:01;6.13;;;2.10;;
51764;SDS011;37835;53.256;6.456;2023-06-26T13:26:28;6.05;;;1.80;;
51764;SDS011;37835;53.256;6.456;2023-06-26T13:28:55;8.15;;;1.65;;
51764;SDS011;37835;53.256;6.456;2023-06-26T13:31:21;6.78;;;1.92;;
51764;SDS011;37835;53.256;6.456;2023-06-26T13:33:47;7.22;;;2.13;;
51764;SDS011;37835;53.256;6.456;2023-06-26T13:36:17;8.38;;;1.80;;
51764;SDS011;37835;53.256;6.456;2023-06-26T13:38:43;9.98;;;1.90;;
51764;SDS011;37835;53.256;6.456;2023-06-26T13:41:09;6.25;;;1.75;;
51764;SDS011;37835;53.256;6.456;2023-06-26T13:43:35;7.55;;;2.25;;
51764;SDS011;37835;53.256;6.456;2023-06-26T13:46:00;7.90;;;1.90;;
51764;SDS011;37835;53.256;6.456;2023-06-26T13:48:27;6.90;;;1.70;;
51764;SDS011;37835;53.256;6.456;2023-06-26T13:50:53;9.98;;;2.17;;
51764;SDS011;37835;53.256;6.456;2023-06-26T13:53:19;9.70;;;1.50;;
51764;SDS011;37835;53.256;6.456;2023-06-26T13:55:45;6.55;;;1.63;;
51764;SDS011;37835;53.256;6.456;2023-06-26T13:58:11;6.22;;;1.77;;
51764;SDS011;37835;53.256;6.456;2023-06-26T14:00:38;7.63;;;2.00;;
51764;SDS011;37835;53.256;6.456;2023-06-26T14:03:04;5.50;;;1.80;;
51764;SDS011;37835;53.256;6.456;2023-06-26T14:05:35;8.48;;;1.92;;
51764;SDS011;37835;53.256;6.456;2023-06-26T14:08:04;12.98;;;2.70;;
51764;SDS011;37835;53.256;6.456;2023-06-26T14:10:31;10.77;;;2.30;;
51764;SDS011;37835;53.256;6.456;2023-06-26T14:12:58;10.02;;;1.65;;
51764;SDS011;37835;53.256;6.456;2023-06-26T14:15:24;9.20;;;2.00;;
51764;SDS011;37835;53.256;6.456;2023-06-26T14:17:50;7.13;;;1.67;;
51764;SDS011;37835;53.256;6.456;2023-06-26T14:20:16;7.28;;;1.83;;
51764;SDS011;37835;53.256;6.456;2023-06-26T14:22:42;9.57;;;2.08;;
51764;SDS011;37835;53.256;6.456;2023-06-26T14:25:12;6.28;;;1.70;;
51764;SDS011;37835;53.256;6.456;2023-06-26T14:27:38;9.68;;;1.95;;
51764;SDS011;37835;53.256;6.456;2023-06-26T14:30:05;8.02;;;2.00;;
51764;SDS011;37835;53.256;6.456;2023-06-26T14:32:32;14.75;;;2.45;;
51764;SDS011;37835;53.256;6.456;2023-06-26T14:34:58;7.28;;;1.77;;
51764;SDS011;37835;53.256;6.456;2023-06-26T14:37:25;10.35;;;1.80;;
51764;SDS011;37835;53.256;6.456;2023-06-26T14:39:51;19.45;;;2.80;;
51764;SDS011;37835;53.256;6.456;2023-06-26T14:42:16;8.82;;;1.85;;
51764;SDS011;37835;53.256;6.456;2023-06-26T14:44:42;6.85;;;1.52;;
51764;SDS011;37835;53.256;6.456;2023-06-26T14:47:07;12.95;;;2.05;;
51764;SDS011;37835;53.256;6.456;2023-06-26T14:49:33;3.45;;;1.33;;
51764;SDS011;37835;53.256;6.456;2023-06-26T14:51:58;9.65;;;2.50;;
51764;SDS011;37835;53.256;6.456;2023-06-26T14:54:24;10.50;;;1.60;;
51764;SDS011;37835;53.256;6.456;2023-06-26T14:56:51;9.10;;;2.25;;
51764;SDS011;37835;53.256;6.456;2023-06-26T14:59:17;4.95;;;1.42;;
51764;SDS011;37835;53.256;6.456;2023-06-26T15:01:42;4.13;;;1.30;;
51764;SDS011;37835;53.256;6.456;2023-06-26T15:04:08;5.60;;;1.90;;
51764;SDS011;37835;53.256;6.456;2023-06-26T15:06:35;6.93;;;1.75;;
51764;SDS011;37835;53.256;6.456;2023-06-26T15:09:00;7.95;;;1.48;;
51764;SDS011;37835;53.256;6.456;2023-06-26T15:11:28;8.02;;;1.67;;
51764;SDS011;37835;53.256;6.456;2023-06-26T15:13:54;6.97;;;2.05;;
51764;SDS011;37835;53.256;6.456;2023-06-26T15:16:20;8.75;;;2.55;;